Terminal Aerodrome Forecast
Issued by NWS

Current Version | Previous Version | Text Only | Print | Product List | Glossary On
Versions: 1 2 3 4 5 6 7 8 9 10 11 12 13 14 15 16 17 18 19 20 21 22 23 24 25 26 27 28 29
000 FTUS41 KBOX 301742 TAFBED TAF KBED 301742Z 3018/3118 VRB03KT P6SM SCT040 BKN250 FM302200 14006KT P6SM FEW040 BKN250 FM302300 17010KT P6SM SCT090 BKN150 FM310600 22004KT P6SM VCSH OVC050 FM311000 00000KT 3SM BR VCSH OVC020 FM311300 09005KT P6SM VCSH OVC025=

USA.gov is the U.S. government's official web portal to all federal, state and local government web resources and services.